sensor_id;sensor_type;location;lat;lon;timestamp;P1;durP1;ratioP1;P2;durP2;ratioP2
52033;SDS011;38045;52.988;6.536;2024-01-06T00:01:37;26.23;;;18.75;;
52033;SDS011;38045;52.988;6.536;2024-01-06T00:04:02;20.42;;;16.70;;
52033;SDS011;38045;52.988;6.536;2024-01-06T00:06:28;24.08;;;18.23;;
52033;SDS011;38045;52.988;6.536;2024-01-06T00:08:53;24.83;;;20.13;;
52033;SDS011;38045;52.988;6.536;2024-01-06T00:11:20;23.52;;;19.40;;
52033;SDS011;38045;52.988;6.536;2024-01-06T00:13:46;21.73;;;16.45;;
52033;SDS011;38045;52.988;6.536;2024-01-06T00:16:12;24.30;;;18.02;;
52033;SDS011;38045;52.988;6.536;2024-01-06T00:18:37;21.85;;;17.05;;
52033;SDS011;38045;52.988;6.536;2024-01-06T00:21:03;25.45;;;17.45;;
52033;SDS011;38045;52.988;6.536;2024-01-06T00:23:29;20.90;;;17.95;;
52033;SDS011;38045;52.988;6.536;2024-01-06T00:25:55;19.00;;;15.00;;
52033;SDS011;38045;52.988;6.536;2024-01-06T00:28:21;20.88;;;16.58;;
52033;SDS011;38045;52.988;6.536;2024-01-06T00:30:46;19.60;;;14.75;;
52033;SDS011;38045;52.988;6.536;2024-01-06T00:33:12;18.67;;;16.15;;
52033;SDS011;38045;52.988;6.536;2024-01-06T00:35:38;19.88;;;15.30;;
52033;SDS011;38045;52.988;6.536;2024-01-06T00:38:03;19.75;;;15.48;;
52033;SDS011;38045;52.988;6.536;2024-01-06T00:40:29;19.77;;;15.98;;
52033;SDS011;38045;52.988;6.536;2024-01-06T00:42:54;21.00;;;15.65;;
52033;SDS011;38045;52.988;6.536;2024-01-06T00:45:20;19.15;;;14.45;;
52033;SDS011;38045;52.988;6.536;2024-01-06T00:47:46;24.50;;;19.15;;
52033;SDS011;38045;52.988;6.536;2024-01-06T00:50:11;22.02;;;18.73;;
52033;SDS011;38045;52.988;6.536;2024-01-06T00:52:37;21.13;;;16.60;;
52033;SDS011;38045;52.988;6.536;2024-01-06T00:55:03;23.52;;;17.33;;
52033;SDS011;38045;52.988;6.536;2024-01-06T00:57:29;24.65;;;19.58;;
52033;SDS011;38045;52.988;6.536;2024-01-06T00:59:54;22.10;;;16.85;;
52033;SDS011;38045;52.988;6.536;2024-01-06T01:02:20;22.25;;;17.35;;
52033;SDS011;38045;52.988;6.536;2024-01-06T01:04:46;20.65;;;17.65;;
52033;SDS011;38045;52.988;6.536;2024-01-06T01:07:12;20.85;;;15.88;;
52033;SDS011;38045;52.988;6.536;2024-01-06T01:09:37;22.02;;;15.75;;
52033;SDS011;38045;52.988;6.536;2024-01-06T01:12:03;23.15;;;18.20;;
52033;SDS011;38045;52.988;6.536;2024-01-06T01:14:29;20.83;;;16.73;;
52033;SDS011;38045;52.988;6.536;2024-01-06T01:16:54;20.83;;;17.75;;
52033;SDS011;38045;52.988;6.536;2024-01-06T01:19:20;24.13;;;18.10;;
52033;SDS011;38045;52.988;6.536;2024-01-06T01:21:46;23.15;;;17.02;;
52033;SDS011;38045;52.988;6.536;2024-01-06T01:24:11;20.63;;;17.08;;
52033;SDS011;38045;52.988;6.536;2024-01-06T01:26:37;23.67;;;17.27;;
52033;SDS011;38045;52.988;6.536;2024-01-06T01:29:02;20.77;;;16.63;;
52033;SDS011;38045;52.988;6.536;2024-01-06T01:31:28;19.25;;;15.00;;
52033;SDS011;38045;52.988;6.536;2024-01-06T01:33:54;23.30;;;16.23;;
52033;SDS011;38045;52.988;6.536;2024-01-06T01:36:19;20.60;;;14.80;;
52033;SDS011;38045;52.988;6.536;2024-01-06T01:38:45;21.80;;;18.23;;
52033;SDS011;38045;52.988;6.536;2024-01-06T01:41:10;18.88;;;14.65;;
52033;SDS011;38045;52.988;6.536;2024-01-06T01:43:36;20.70;;;15.75;;
52033;SDS011;38045;52.988;6.536;2024-01-06T01:46:02;18.48;;;14.95;;
52033;SDS011;38045;52.988;6.536;2024-01-06T01:48:29;20.60;;;15.98;;
52033;SDS011;38045;52.988;6.536;2024-01-06T01:50:56;18.85;;;14.05;;
52033;SDS011;38045;52.988;6.536;2024-01-06T01:53:22;23.95;;;17.65;;
52033;SDS011;38045;52.988;6.536;2024-01-06T01:55:49;20.40;;;14.48;;
52033;SDS011;38045;52.988;6.536;2024-01-06T01:58:16;15.10;;;13.50;;
52033;SDS011;38045;52.988;6.536;2024-01-06T02:00:41;19.13;;;12.82;;
52033;SDS011;38045;52.988;6.536;2024-01-06T02:03:07;18.38;;;13.70;;
52033;SDS011;38045;52.988;6.536;2024-01-06T02:05:34;19.02;;;15.18;;
52033;SDS011;38045;52.988;6.536;2024-01-06T02:08:00;23.65;;;17.60;;
52033;SDS011;38045;52.988;6.536;2024-01-06T02:10:25;19.83;;;14.85;;
52033;SDS011;38045;52.988;6.536;2024-01-06T02:12:51;19.42;;;14.02;;
52033;SDS011;38045;52.988;6.536;2024-01-06T02:15:17;19.42;;;15.23;;
52033;SDS011;38045;52.988;6.536;2024-01-06T02:17:46;20.65;;;14.93;;
52033;SDS011;38045;52.988;6.536;2024-01-06T02:20:11;23.70;;;16.98;;
52033;SDS011;38045;52.988;6.536;2024-01-06T02:22:39;21.80;;;15.15;;
52033;SDS011;38045;52.988;6.536;2024-01-06T02:25:05;18.10;;;13.93;;
52033;SDS011;38045;52.988;6.536;2024-01-06T02:27:37;21.20;;;17.02;;
52033;SDS011;38045;52.988;6.536;2024-01-06T02:30:04;19.45;;;15.05;;
52033;SDS011;38045;52.988;6.536;2024-01-06T02:32:33;22.02;;;16.52;;
52033;SDS011;38045;52.988;6.536;2024-01-06T02:34:59;19.30;;;15.80;;
52033;SDS011;38045;52.988;6.536;2024-01-06T02:37:25;20.27;;;14.50;;
52033;SDS011;38045;52.988;6.536;2024-01-06T02:39:51;19.33;;;13.77;;
52033;SDS011;38045;52.988;6.536;2024-01-06T02:42:18;19.77;;;14.40;;
52033;SDS011;38045;52.988;6.536;2024-01-06T02:44:44;22.50;;;14.60;;
52033;SDS011;38045;52.988;6.536;2024-01-06T02:47:10;24.10;;;16.25;;
52033;SDS011;38045;52.988;6.536;2024-01-06T02:49:35;20.38;;;14.43;;
52033;SDS011;38045;52.988;6.536;2024-01-06T02:52:01;18.88;;;13.48;;
52033;SDS011;38045;52.988;6.536;2024-01-06T02:54:26;17.90;;;13.55;;
52033;SDS011;38045;52.988;6.536;2024-01-06T02:56:52;17.67;;;13.38;;
52033;SDS011;38045;52.988;6.536;2024-01-06T02:59:17;21.33;;;15.13;;
52033;SDS011;38045;52.988;6.536;2024-01-06T03:01:43;20.63;;;14.35;;
52033;SDS011;38045;52.988;6.536;2024-01-06T03:04:09;20.70;;;15.18;;
52033;SDS011;38045;52.988;6.536;2024-01-06T03:06:34;21.55;;;16.38;;
52033;SDS011;38045;52.988;6.536;2024-01-06T03:09:00;22.48;;;16.65;;
52033;SDS011;38045;52.988;6.536;2024-01-06T03:11:25;19.77;;;15.15;;
52033;SDS011;38045;52.988;6.536;2024-01-06T03:13:51;19.98;;;15.13;;
52033;SDS011;38045;52.988;6.536;2024-01-06T03:16:16;23.00;;;18.83;;
52033;SDS011;38045;52.988;6.536;2024-01-06T03:18:42;25.23;;;17.80;;
52033;SDS011;38045;52.988;6.536;2024-01-06T03:21:17;27.25;;;16.90;;
52033;SDS011;38045;52.988;6.536;2024-01-06T03:23:44;22.80;;;17.48;;
52033;SDS011;38045;52.988;6.536;2024-01-06T03:26:09;21.80;;;17.30;;
52033;SDS011;38045;52.988;6.536;2024-01-06T03:28:35;25.17;;;17.13;;
52033;SDS011;38045;52.988;6.536;2024-01-06T03:31:00;28.75;;;17.42;;
52033;SDS011;38045;52.988;6.536;2024-01-06T03:33:26;24.73;;;16.92;;
52033;SDS011;38045;52.988;6.536;2024-01-06T03:35:51;18.73;;;15.77;;
52033;SDS011;38045;52.988;6.536;2024-01-06T03:38:17;24.25;;;17.63;;
52033;SDS011;38045;52.988;6.536;2024-01-06T03:40:42;23.58;;;18.25;;
52033;SDS011;38045;52.988;6.536;2024-01-06T03:43:08;23.30;;;16.90;;
52033;SDS011;38045;52.988;6.536;2024-01-06T03:45:34;22.25;;;17.02;;
52033;SDS011;38045;52.988;6.536;2024-01-06T03:48:00;30.63;;;18.83;;
52033;SDS011;38045;52.988;6.536;2024-01-06T03:50:25;27.70;;;18.40;;
52033;SDS011;38045;52.988;6.536;2024-01-06T03:52:51;29.73;;;20.83;;
52033;SDS011;38045;52.988;6.536;2024-01-06T03:55:16;30.52;;;19.33;;
52033;SDS011;38045;52.988;6.536;2024-01-06T03:57:42;30.10;;;21.58;;
52033;SDS011;38045;52.988;6.536;2024-01-06T04:00:08;22.98;;;18.35;;
52033;SDS011;38045;52.988;6.536;2024-01-06T04:02:33;24.98;;;15.77;;
52033;SDS011;38045;52.988;6.536;2024-01-06T04:04:59;22.58;;;18.13;;
52033;SDS011;38045;52.988;6.536;2024-01-06T04:07:25;23.35;;;17.52;;
52033;SDS011;38045;52.988;6.536;2024-01-06T04:09:50;23.20;;;15.95;;
52033;SDS011;38045;52.988;6.536;2024-01-06T04:12:16;16.10;;;14.40;;
52033;SDS011;38045;52.988;6.536;2024-01-06T04:14:42;21.63;;;16.40;;
52033;SDS011;38045;52.988;6.536;2024-01-06T04:17:07;23.85;;;15.80;;
52033;SDS011;38045;52.988;6.536;2024-01-06T04:19:33;21.67;;;13.77;;
52033;SDS011;38045;52.988;6.536;2024-01-06T04:21:59;20.42;;;14.93;;
52033;SDS011;38045;52.988;6.536;2024-01-06T04:24:25;18.15;;;14.05;;
52033;SDS011;38045;52.988;6.536;2024-01-06T04:26:50;18.70;;;14.75;;
52033;SDS011;38045;52.988;6.536;2024-01-06T04:29:16;18.63;;;12.85;;
52033;SDS011;38045;52.988;6.536;2024-01-06T04:31:42;20.58;;;15.05;;
52033;SDS011;38045;52.988;6.536;2024-01-06T04:34:07;18.10;;;13.75;;
52033;SDS011;38045;52.988;6.536;2024-01-06T04:36:33;23.27;;;15.02;;
52033;SDS011;38045;52.988;6.536;2024-01-06T04:38:58;20.65;;;14.05;;
52033;SDS011;38045;52.988;6.536;2024-01-06T04:41:24;21.55;;;15.88;;
52033;SDS011;38045;52.988;6.536;2024-01-06T04:43:50;17.85;;;14.23;;
52033;SDS011;38045;52.988;6.536;2024-01-06T04:46:15;30.52;;;17.13;;
52033;SDS011;38045;52.988;6.536;2024-01-06T04:48:41;22.80;;;17.25;;
52033;SDS011;38045;52.988;6.536;2024-01-06T04:51:08;18.65;;;12.52;;
52033;SDS011;38045;52.988;6.536;2024-01-06T04:53:38;24.27;;;16.63;;
52033;SDS011;38045;52.988;6.536;2024-01-06T04:58:29;20.15;;;14.90;;
52033;SDS011;38045;52.988;6.536;2024-01-06T05:00:55;22.65;;;15.02;;
52033;SDS011;38045;52.988;6.536;2024-01-06T05:03:21;23.70;;;17.10;;
52033;SDS011;38045;52.988;6.536;2024-01-06T05:05:46;22.20;;;16.05;;
52033;SDS011;38045;52.988;6.536;2024-01-06T05:08:12;18.88;;;14.25;;
52033;SDS011;38045;52.988;6.536;2024-01-06T05:10:37;17.23;;;13.18;;
52033;SDS011;38045;52.988;6.536;2024-01-06T05:13:03;16.45;;;13.45;;
52033;SDS011;38045;52.988;6.536;2024-01-06T05:15:29;18.50;;;14.57;;
52033;SDS011;38045;52.988;6.536;2024-01-06T05:17:54;21.83;;;15.35;;
52033;SDS011;38045;52.988;6.536;2024-01-06T05:20:20;25.23;;;16.42;;
52033;SDS011;38045;52.988;6.536;2024-01-06T05:22:46;24.60;;;16.90;;
52033;SDS011;38045;52.988;6.536;2024-01-06T05:25:11;21.23;;;14.75;;
52033;SDS011;38045;52.988;6.536;2024-01-06T05:27:37;20.70;;;16.52;;
52033;SDS011;38045;52.988;6.536;2024-01-06T05:30:02;19.90;;;16.13;;
52033;SDS011;38045;52.988;6.536;2024-01-06T05:32:28;20.70;;;17.40;;
52033;SDS011;38045;52.988;6.536;2024-01-06T05:34:54;21.63;;;15.10;;
52033;SDS011;38045;52.988;6.536;2024-01-06T05:37:19;19.90;;;14.70;;
52033;SDS011;38045;52.988;6.536;2024-01-06T05:39:45;18.80;;;14.50;;
52033;SDS011;38045;52.988;6.536;2024-01-06T05:42:11;19.60;;;14.45;;
52033;SDS011;38045;52.988;6.536;2024-01-06T05:44:37;21.30;;;16.25;;
52033;SDS011;38045;52.988;6.536;2024-01-06T05:47:03;17.58;;;15.70;;
52033;SDS011;38045;52.988;6.536;2024-01-06T05:49:29;22.33;;;15.45;;
52033;SDS011;38045;52.988;6.536;2024-01-06T05:51:55;20.67;;;15.88;;
52033;SDS011;38045;52.988;6.536;2024-01-06T05:54:20;19.88;;;14.40;;
52033;SDS011;38045;52.988;6.536;2024-01-06T05:56:46;22.55;;;14.88;;
52033;SDS011;38045;52.988;6.536;2024-01-06T05:59:12;23.55;;;16.15;;
52033;SDS011;38045;52.988;6.536;2024-01-06T06:01:37;22.75;;;15.82;;
52033;SDS011;38045;52.988;6.536;2024-01-06T06:04:03;19.02;;;14.82;;
52033;SDS011;38045;52.988;6.536;2024-01-06T06:06:28;23.52;;;15.15;;
52033;SDS011;38045;52.988;6.536;2024-01-06T06:08:55;25.08;;;17.42;;
52033;SDS011;38045;52.988;6.536;2024-01-06T06:11:21;19.70;;;15.45;;
52033;SDS011;38045;52.988;6.536;2024-01-06T06:13:46;21.27;;;14.55;;
52033;SDS011;38045;52.988;6.536;2024-01-06T06:16:12;20.27;;;15.43;;
52033;SDS011;38045;52.988;6.536;2024-01-06T06:18:38;19.65;;;14.80;;
52033;SDS011;38045;52.988;6.536;2024-01-06T06:21:04;21.45;;;14.95;;
52033;SDS011;38045;52.988;6.536;2024-01-06T06:23:31;19.40;;;14.77;;
52033;SDS011;38045;52.988;6.536;2024-01-06T06:25:57;27.35;;;16.30;;
52033;SDS011;38045;52.988;6.536;2024-01-06T06:28:22;21.10;;;16.25;;
52033;SDS011;38045;52.988;6.536;2024-01-06T06:30:48;20.58;;;15.45;;
52033;SDS011;38045;52.988;6.536;2024-01-06T06:33:13;21.35;;;15.02;;
52033;SDS011;38045;52.988;6.536;2024-01-06T06:35:39;24.08;;;17.13;;
52033;SDS011;38045;52.988;6.536;2024-01-06T06:38:05;22.38;;;17.40;;
52033;SDS011;38045;52.988;6.536;2024-01-06T06:40:31;19.63;;;14.82;;
52033;SDS011;38045;52.988;6.536;2024-01-06T06:42:56;23.13;;;16.45;;
52033;SDS011;38045;52.988;6.536;2024-01-06T06:45:22;23.80;;;18.50;;
52033;SDS011;38045;52.988;6.536;2024-01-06T06:47:51;18.70;;;13.73;;
52033;SDS011;38045;52.988;6.536;2024-01-06T06:50:16;19.42;;;16.02;;
52033;SDS011;38045;52.988;6.536;2024-01-06T06:52:42;18.85;;;14.00;;
52033;SDS011;38045;52.988;6.536;2024-01-06T06:55:08;18.27;;;13.07;;
52033;SDS011;38045;52.988;6.536;2024-01-06T06:57:33;17.98;;;15.30;;
52033;SDS011;38045;52.988;6.536;2024-01-06T06:59:59;18.38;;;13.90;;
52033;SDS011;38045;52.988;6.536;2024-01-06T07:02:25;17.55;;;14.10;;
52033;SDS011;38045;52.988;6.536;2024-01-06T07:04:51;18.60;;;12.98;;
52033;SDS011;38045;52.988;6.536;2024-01-06T07:07:16;16.38;;;13.45;;
52033;SDS011;38045;52.988;6.536;2024-01-06T07:09:42;22.58;;;13.35;;
52033;SDS011;38045;52.988;6.536;2024-01-06T07:12:08;18.38;;;14.35;;
52033;SDS011;38045;52.988;6.536;2024-01-06T07:14:33;15.05;;;12.63;;
52033;SDS011;38045;52.988;6.536;2024-01-06T07:16:59;17.80;;;14.15;;
52033;SDS011;38045;52.988;6.536;2024-01-06T07:19:24;18.52;;;13.85;;
52033;SDS011;38045;52.988;6.536;2024-01-06T07:21:50;17.13;;;14.20;;
52033;SDS011;38045;52.988;6.536;2024-01-06T07:24:15;19.05;;;15.00;;
52033;SDS011;38045;52.988;6.536;2024-01-06T07:26:41;18.77;;;15.07;;
52033;SDS011;38045;52.988;6.536;2024-01-06T07:29:07;19.17;;;16.02;;
52033;SDS011;38045;52.988;6.536;2024-01-06T07:31:33;19.65;;;14.70;;
52033;SDS011;38045;52.988;6.536;2024-01-06T07:33:59;27.42;;;16.17;;
52033;SDS011;38045;52.988;6.536;2024-01-06T07:36:24;17.48;;;12.57;;
52033;SDS011;38045;52.988;6.536;2024-01-06T07:38:50;18.02;;;14.32;;
52033;SDS011;38045;52.988;6.536;2024-01-06T07:41:17;17.40;;;15.55;;
52033;SDS011;38045;52.988;6.536;2024-01-06T07:43:43;22.00;;;16.40;;
52033;SDS011;38045;52.988;6.536;2024-01-06T07:46:08;17.70;;;13.05;;
52033;SDS011;38045;52.988;6.536;2024-01-06T07:48:34;21.73;;;15.65;;
52033;SDS011;38045;52.988;6.536;2024-01-06T07:51:01;16.48;;;14.70;;
52033;SDS011;38045;52.988;6.536;2024-01-06T07:53:28;14.57;;;12.63;;
52033;SDS011;38045;52.988;6.536;2024-01-06T07:55:54;21.83;;;16.30;;
52033;SDS011;38045;52.988;6.536;2024-01-06T07:58:19;20.48;;;16.55;;
52033;SDS011;38045;52.988;6.536;2024-01-06T08:00:46;23.13;;;15.77;;
52033;SDS011;38045;52.988;6.536;2024-01-06T08:03:12;23.25;;;15.80;;
52033;SDS011;38045;52.988;6.536;2024-01-06T08:05:38;18.10;;;15.13;;
52033;SDS011;38045;52.988;6.536;2024-01-06T08:08:04;19.90;;;16.33;;
52033;SDS011;38045;52.988;6.536;2024-01-06T08:10:30;18.58;;;15.43;;
52033;SDS011;38045;52.988;6.536;2024-01-06T08:12:56;19.50;;;15.18;;
52033;SDS011;38045;52.988;6.536;2024-01-06T08:15:22;20.92;;;17.08;;
52033;SDS011;38045;52.988;6.536;2024-01-06T08:17:48;19.40;;;14.95;;
52033;SDS011;38045;52.988;6.536;2024-01-06T08:20:13;19.42;;;14.52;;
52033;SDS011;38045;52.988;6.536;2024-01-06T08:22:39;18.00;;;14.90;;
52033;SDS011;38045;52.988;6.536;2024-01-06T08:25:04;23.27;;;16.63;;
52033;SDS011;38045;52.988;6.536;2024-01-06T08:27:32;19.52;;;15.00;;
52033;SDS011;38045;52.988;6.536;2024-01-06T08:29:58;17.35;;;14.85;;
52033;SDS011;38045;52.988;6.536;2024-01-06T08:32:23;23.73;;;15.65;;
52033;SDS011;38045;52.988;6.536;2024-01-06T08:34:49;19.52;;;15.98;;
52033;SDS011;38045;52.988;6.536;2024-01-06T08:37:14;20.15;;;15.50;;
52033;SDS011;38045;52.988;6.536;2024-01-06T08:39:40;16.80;;;12.25;;
52033;SDS011;38045;52.988;6.536;2024-01-06T08:42:06;27.17;;;16.40;;
52033;SDS011;38045;52.988;6.536;2024-01-06T08:44:31;31.30;;;15.98;;
52033;SDS011;38045;52.988;6.536;2024-01-06T08:46:57;16.50;;;13.27;;
52033;SDS011;38045;52.988;6.536;2024-01-06T08:49:23;16.85;;;14.05;;
52033;SDS011;38045;52.988;6.536;2024-01-06T08:51:49;16.58;;;12.68;;
52033;SDS011;38045;52.988;6.536;2024-01-06T08:54:14;16.85;;;13.98;;
52033;SDS011;38045;52.988;6.536;2024-01-06T08:56:40;17.35;;;14.02;;
52033;SDS011;38045;52.988;6.536;2024-01-06T08:59:06;17.42;;;13.38;;
52033;SDS011;38045;52.988;6.536;2024-01-06T09:01:32;18.00;;;14.77;;
52033;SDS011;38045;52.988;6.536;2024-01-06T09:04:00;17.80;;;14.88;;
52033;SDS011;38045;52.988;6.536;2024-01-06T09:06:26;21.25;;;14.45;;
52033;SDS011;38045;52.988;6.536;2024-01-06T09:08:52;22.42;;;15.90;;
52033;SDS011;38045;52.988;6.536;2024-01-06T09:11:18;20.10;;;14.05;;
52033;SDS011;38045;52.988;6.536;2024-01-06T09:13:43;17.98;;;14.52;;
52033;SDS011;38045;52.988;6.536;2024-01-06T09:16:09;21.92;;;17.50;;
52033;SDS011;38045;52.988;6.536;2024-01-06T09:18:35;17.60;;;13.50;;
52033;SDS011;38045;52.988;6.536;2024-01-06T09:21:01;21.52;;;17.60;;
52033;SDS011;38045;52.988;6.536;2024-01-06T09:23:28;19.52;;;16.17;;
52033;SDS011;38045;52.988;6.536;2024-01-06T09:25:54;18.92;;;15.77;;
52033;SDS011;38045;52.988;6.536;2024-01-06T09:28:20;20.80;;;15.20;;
52033;SDS011;38045;52.988;6.536;2024-01-06T09:30:48;23.05;;;16.92;;
52033;SDS011;38045;52.988;6.536;2024-01-06T09:33:14;20.58;;;16.25;;
52033;SDS011;38045;52.988;6.536;2024-01-06T09:35:42;23.27;;;16.45;;
52033;SDS011;38045;52.988;6.536;2024-01-06T09:38:08;20.17;;;15.80;;
52033;SDS011;38045;52.988;6.536;2024-01-06T09:40:34;17.77;;;14.95;;
52033;SDS011;38045;52.988;6.536;2024-01-06T09:43:06;26.17;;;15.57;;
52033;SDS011;38045;52.988;6.536;2024-01-06T09:45:31;17.85;;;15.88;;
52033;SDS011;38045;52.988;6.536;2024-01-06T09:47:59;19.75;;;15.85;;
52033;SDS011;38045;52.988;6.536;2024-01-06T09:50:30;15.85;;;14.15;;
52033;SDS011;38045;52.988;6.536;2024-01-06T09:52:56;18.65;;;16.52;;
52033;SDS011;38045;52.988;6.536;2024-01-06T09:55:30;17.75;;;15.23;;
52033;SDS011;38045;52.988;6.536;2024-01-06T09:57:56;19.60;;;15.68;;
52033;SDS011;38045;52.988;6.536;2024-01-06T10:00:22;19.80;;;15.80;;
52033;SDS011;38045;52.988;6.536;2024-01-06T10:02:48;18.40;;;13.57;;
52033;SDS011;38045;52.988;6.536;2024-01-06T10:05:14;26.42;;;16.40;;
52033;SDS011;38045;52.988;6.536;2024-01-06T10:07:41;20.67;;;15.98;;
52033;SDS011;38045;52.988;6.536;2024-01-06T10:10:11;16.92;;;13.55;;
52033;SDS011;38045;52.988;6.536;2024-01-06T10:12:37;22.33;;;16.95;;
52033;SDS011;38045;52.988;6.536;2024-01-06T10:15:07;18.65;;;15.02;;
52033;SDS011;38045;52.988;6.536;2024-01-06T10:17:39;18.05;;;12.65;;
52033;SDS011;38045;52.988;6.536;2024-01-06T10:20:09;16.90;;;13.38;;
52033;SDS011;38045;52.988;6.536;2024-01-06T10:22:36;18.65;;;15.13;;
52033;SDS011;38045;52.988;6.536;2024-01-06T10:25:09;21.48;;;15.13;;
52033;SDS011;38045;52.988;6.536;2024-01-06T10:27:39;18.80;;;14.68;;
52033;SDS011;38045;52.988;6.536;2024-01-06T10:30:06;21.15;;;16.02;;
52033;SDS011;38045;52.988;6.536;2024-01-06T10:32:32;16.67;;;14.40;;
52033;SDS011;38045;52.988;6.536;2024-01-06T10:35:00;18.20;;;15.60;;
52033;SDS011;38045;52.988;6.536;2024-01-06T10:37:26;21.00;;;17.77;;
52033;SDS011;38045;52.988;6.536;2024-01-06T10:42:54;19.70;;;15.98;;
52033;SDS011;38045;52.988;6.536;2024-01-06T10:45:22;18.65;;;16.23;;
52033;SDS011;38045;52.988;6.536;2024-01-06T10:47:48;19.13;;;14.70;;
52033;SDS011;38045;52.988;6.536;2024-01-06T10:50:16;19.10;;;15.57;;
52033;SDS011;38045;52.988;6.536;2024-01-06T10:52:42;16.85;;;14.80;;
52033;SDS011;38045;52.988;6.536;2024-01-06T10:55:08;17.65;;;14.25;;
52033;SDS011;38045;52.988;6.536;2024-01-06T10:57:35;17.13;;;14.32;;
52033;SDS011;38045;52.988;6.536;2024-01-06T11:00:08;19.92;;;16.23;;
52033;SDS011;38045;52.988;6.536;2024-01-06T11:02:35;20.02;;;16.35;;
52033;SDS011;38045;52.988;6.536;2024-01-06T11:05:01;18.30;;;12.75;;
52033;SDS011;38045;52.988;6.536;2024-01-06T11:07:27;15.88;;;13.13;;
52033;SDS011;38045;52.988;6.536;2024-01-06T11:09:57;16.50;;;13.10;;
52033;SDS011;38045;52.988;6.536;2024-01-06T11:12:31;18.20;;;14.17;;
52033;SDS011;38045;52.988;6.536;2024-01-06T11:14:58;19.27;;;16.27;;
52033;SDS011;38045;52.988;6.536;2024-01-06T11:20:18;17.05;;;14.00;;
52033;SDS011;38045;52.988;6.536;2024-01-06T11:22:47;17.85;;;14.93;;
52033;SDS011;38045;52.988;6.536;2024-01-06T11:25:15;19.10;;;16.13;;
52033;SDS011;38045;52.988;6.536;2024-01-06T11:27:42;18.17;;;13.60;;
52033;SDS011;38045;52.988;6.536;2024-01-06T11:30:18;15.55;;;13.80;;
52033;SDS011;38045;52.988;6.536;2024-01-06T11:32:50;21.02;;;15.48;;
52033;SDS011;38045;52.988;6.536;2024-01-06T11:35:18;17.67;;;14.90;;
52033;SDS011;38045;52.988;6.536;2024-01-06T11:42:40;15.52;;;13.25;;
52033;SDS011;38045;52.988;6.536;2024-01-06T11:45:06;14.98;;;9.68;;
52033;SDS011;38045;52.988;6.536;2024-01-06T11:47:35;18.75;;;14.32;;
52033;SDS011;38045;52.988;6.536;2024-01-06T11:50:02;16.13;;;14.30;;
52033;SDS011;38045;52.988;6.536;2024-01-06T11:52:31;15.50;;;13.73;;
52033;SDS011;38045;52.988;6.536;2024-01-06T11:54:58;14.95;;;13.13;;
52033;SDS011;38045;52.988;6.536;2024-01-06T11:57:28;15.00;;;12.65;;
52033;SDS011;38045;52.988;6.536;2024-01-06T11:59:54;18.88;;;14.32;;
52033;SDS011;38045;52.988;6.536;2024-01-06T12:02:20;17.85;;;14.82;;
52033;SDS011;38045;52.988;6.536;2024-01-06T12:04:49;16.33;;;13.45;;
52033;SDS011;38045;52.988;6.536;2024-01-06T12:07:16;17.05;;;12.07;;
52033;SDS011;38045;52.988;6.536;2024-01-06T12:09:42;16.45;;;14.57;;
52033;SDS011;38045;52.988;6.536;2024-01-06T12:12:08;14.32;;;12.82;;
52033;SDS011;38045;52.988;6.536;2024-01-06T12:14:39;17.63;;;12.90;;
52033;SDS011;38045;52.988;6.536;2024-01-06T12:17:06;19.63;;;13.70;;
52033;SDS011;38045;52.988;6.536;2024-01-06T12:19:32;13.48;;;11.95;;
52033;SDS011;38045;52.988;6.536;2024-01-06T12:21:58;16.55;;;13.00;;
52033;SDS011;38045;52.988;6.536;2024-01-06T12:24:26;19.67;;;16.00;;
52033;SDS011;38045;52.988;6.536;2024-01-06T12:26:52;13.50;;;11.00;;
52033;SDS011;38045;52.988;6.536;2024-01-06T12:29:20;16.02;;;12.45;;
52033;SDS011;38045;52.988;6.536;2024-01-06T12:31:46;17.02;;;13.63;;
52033;SDS011;38045;52.988;6.536;2024-01-06T12:34:11;16.13;;;13.90;;
52033;SDS011;38045;52.988;6.536;2024-01-06T12:36:37;15.98;;;13.35;;
52033;SDS011;38045;52.988;6.536;2024-01-06T12:39:05;16.77;;;12.38;;
52033;SDS011;38045;52.988;6.536;2024-01-06T12:41:35;15.80;;;11.95;;
52033;SDS011;38045;52.988;6.536;2024-01-06T12:44:03;16.20;;;13.10;;
52033;SDS011;38045;52.988;6.536;2024-01-06T12:46:28;15.80;;;13.38;;
52033;SDS011;38045;52.988;6.536;2024-01-06T12:48:54;17.88;;;14.88;;
52033;SDS011;38045;52.988;6.536;2024-01-06T12:51:20;24.20;;;15.38;;
52033;SDS011;38045;52.988;6.536;2024-01-06T12:53:46;16.27;;;12.75;;
52033;SDS011;38045;52.988;6.536;2024-01-06T12:56:11;19.83;;;14.10;;
52033;SDS011;38045;52.988;6.536;2024-01-06T12:58:39;19.10;;;11.77;;
52033;SDS011;38045;52.988;6.536;2024-01-06T13:01:05;14.13;;;11.57;;
52033;SDS011;38045;52.988;6.536;2024-01-06T13:03:32;12.05;;;9.60;;
52033;SDS011;38045;52.988;6.536;2024-01-06T13:05:58;15.77;;;13.32;;
52033;SDS011;38045;52.988;6.536;2024-01-06T13:08:25;15.07;;;12.05;;
52033;SDS011;38045;52.988;6.536;2024-01-06T13:10:51;17.85;;;13.48;;
52033;SDS011;38045;52.988;6.536;2024-01-06T13:13:17;16.77;;;13.60;;
52033;SDS011;38045;52.988;6.536;2024-01-06T13:15:42;16.80;;;13.40;;
52033;SDS011;38045;52.988;6.536;2024-01-06T13:18:08;16.38;;;12.38;;
52033;SDS011;38045;52.988;6.536;2024-01-06T13:20:33;15.73;;;13.30;;
52033;SDS011;38045;52.988;6.536;2024-01-06T13:22:59;24.05;;;15.07;;
52033;SDS011;38045;52.988;6.536;2024-01-06T13:25:25;16.42;;;12.48;;
52033;SDS011;38045;52.988;6.536;2024-01-06T13:27:50;19.15;;;14.57;;
52033;SDS011;38045;52.988;6.536;2024-01-06T13:30:16;17.60;;;13.93;;
52033;SDS011;38045;52.988;6.536;2024-01-06T13:32:42;14.63;;;12.63;;
52033;SDS011;38045;52.988;6.536;2024-01-06T13:35:08;13.38;;;11.98;;
52033;SDS011;38045;52.988;6.536;2024-01-06T13:37:36;14.88;;;12.60;;
52033;SDS011;38045;52.988;6.536;2024-01-06T13:40:02;14.73;;;11.07;;
52033;SDS011;38045;52.988;6.536;2024-01-06T13:42:28;12.73;;;10.95;;
52033;SDS011;38045;52.988;6.536;2024-01-06T13:44:54;14.48;;;11.32;;
52033;SDS011;38045;52.988;6.536;2024-01-06T13:47:19;12.23;;;10.98;;
52033;SDS011;38045;52.988;6.536;2024-01-06T13:49:45;15.20;;;12.63;;
52033;SDS011;38045;52.988;6.536;2024-01-06T13:52:11;14.50;;;12.35;;
52033;SDS011;38045;52.988;6.536;2024-01-06T13:54:36;14.25;;;12.73;;
52033;SDS011;38045;52.988;6.536;2024-01-06T13:57:02;15.38;;;13.20;;
52033;SDS011;38045;52.988;6.536;2024-01-06T13:59:27;12.23;;;10.95;;
52033;SDS011;38045;52.988;6.536;2024-01-06T14:01:53;16.33;;;11.98;;
52033;SDS011;38045;52.988;6.536;2024-01-06T14:04:19;14.27;;;12.27;;
52033;SDS011;38045;52.988;6.536;2024-01-06T14:06:45;16.20;;;13.43;;
52033;SDS011;38045;52.988;6.536;2024-01-06T14:09:12;13.90;;;11.75;;
52033;SDS011;38045;52.988;6.536;2024-01-06T14:11:38;13.32;;;11.80;;
52033;SDS011;38045;52.988;6.536;2024-01-06T14:14:04;13.30;;;10.95;;
52033;SDS011;38045;52.988;6.536;2024-01-06T14:16:30;15.30;;;11.13;;
52033;SDS011;38045;52.988;6.536;2024-01-06T14:18:55;17.15;;;11.52;;
52033;SDS011;38045;52.988;6.536;2024-01-06T14:21:21;14.38;;;11.50;;
52033;SDS011;38045;52.988;6.536;2024-01-06T14:23:47;13.75;;;11.02;;
52033;SDS011;38045;52.988;6.536;2024-01-06T14:26:14;14.00;;;10.68;;
52033;SDS011;38045;52.988;6.536;2024-01-06T14:28:41;13.77;;;11.10;;